Time,TemperatureF,DewpointF,PressureIn,WindDirection,WindDirectionDegrees,WindSpeedMPH,WindSpeedGustMPH,Humidity,HourlyPrecipIn,Conditions,Clouds,dailyrainin,SoftwareType,DateUTC
2013-07-20 00:00:00,74.1,72.6,30.10,SSW,205,0.0,0.0,95,0.00,,,1.68,VWS V14.00,2013-07-20 04:00:00,
2013-07-20 00:01:00,74.1,72.6,30.10,SSW,205,0.0,0.0,95,0.00,,,1.68,VWS V14.00,2013-07-20 04:01:00,
2013-07-20 00:02:00,74.1,72.6,30.10,SSW,205,0.0,0.0,95,0.00,,,0.00,VWS V14.00,2013-07-20 04:02:00,
2013-07-20 00:03:00,74.1,72.6,30.10,SSW,205,0.0,0.0,95,0.00,,,0.00,VWS V14.00,2013-07-20 04:03:00,
2013-07-20 00:06:00,74.1,72.6,30.10,SSW,205,0.0,0.0,95,0.01,,,0.01,VWS V14.00,2013-07-20 04:06:00,
2013-07-20 00:11:00,74.1,72.6,30.10,SSW,205,0.0,0.0,95,0.01,,,0.01,VWS V14.00,2013-07-20 04:11:00,
2013-07-20 00:17:00,74.1,72.6,30.10,SSW,205,0.0,0.0,95,0.01,,,0.01,VWS V14.00,2013-07-20 04:17:00,
2013-07-20 00:22:00,74.1,72.6,30.10,SSW,205,0.0,0.0,95,0.01,,,0.01,VWS V14.00,2013-07-20 04:22:00,
2013-07-20 00:27:00,74.2,72.7,30.10,SSW,205,0.0,0.0,95,0.01,,,0.01,VWS V14.00,2013-07-20 04:27:00,
2013-07-20 00:30:00,74.2,72.7,30.11,SSW,205,0.0,0.0,95,0.00,,,1.68,VWS V14.00,2013-07-20 04:30:00,
2013-07-20 00:32:00,74.2,72.7,30.10,SSW,205,0.0,0.0,95,0.01,,,0.01,VWS V14.00,2013-07-20 04:32:00,
2013-07-20 00:37:00,74.2,72.7,30.10,SSW,205,0.0,0.0,95,0.01,,,0.01,VWS V14.00,2013-07-20 04:37:00,
2013-07-20 00:42:00,74.2,72.7,30.10,SSW,205,0.0,0.0,95,0.01,,,0.01,VWS V14.00,2013-07-20 04:42:00,
2013-07-20 00:47:00,74.2,72.7,30.10,SSW,205,0.0,0.0,95,0.01,,,0.01,VWS V14.00,2013-07-20 04:47:00,
2013-07-20 00:52:00,74.2,72.7,30.10,SSW,205,0.0,0.0,95,0.01,,,0.01,VWS V14.00,2013-07-20 04:52:00,
2013-07-20 00:57:00,74.2,72.7,30.10,SSW,207,0.0,0.0,95,0.01,,,0.01,VWS V14.00,2013-07-20 04:57:00,
2013-07-20 01:00:00,74.1,72.6,30.10,SSW,205,0.0,0.0,95,0.00,,,1.68,VWS V14.00,2013-07-20 05:00:00,
2013-07-20 01:02:00,74.2,72.7,30.10,SSW,207,0.0,0.0,95,0.01,,,0.01,VWS V14.00,2013-07-20 05:02:00,
2013-07-20 01:07:00,74.2,72.7,30.10,SSW,207,0.0,0.0,95,0.01,,,0.01,VWS V14.00,2013-07-20 05:07:00,
2013-07-20 01:12:00,74.2,73.0,30.09,SSW,207,0.0,0.0,96,0.01,,,0.01,VWS V14.00,2013-07-20 05:12:00,
2013-07-20 01:17:00,74.2,72.7,30.09,SSW,207,0.0,0.0,95,0.01,,,0.01,VWS V14.00,2013-07-20 05:17:00,
2013-07-20 01:22:00,74.1,72.6,30.09,SSW,207,0.0,0.0,95,0.01,,,0.01,VWS V14.00,2013-07-20 05:22:00,
2013-07-20 01:27:00,74.1,72.6,30.09,SSW,207,0.0,0.0,95,0.01,,,0.01,VWS V14.00,2013-07-20 05:27:00,
2013-07-20 01:30:00,74.2,72.7,30.10,SSW,205,0.0,0.0,95,0.01,,,0.01,VWS V14.00,2013-07-20 05:30:00,
2013-07-20 01:32:00,74.0,72.5,30.09,SSW,207,0.0,0.0,95,0.00,,,0.01,VWS V14.00,2013-07-20 05:32:00,
2013-07-20 01:37:00,74.0,72.8,30.09,SSW,207,0.0,0.0,96,0.00,,,0.01,VWS V14.00,2013-07-20 05:37:00,
2013-07-20 01:42:00,74.0,72.8,30.09,SSW,207,0.0,0.0,96,0.00,,,0.01,VWS V14.00,2013-07-20 05:42:00,
2013-07-20 01:47:00,74.0,72.8,30.09,SSW,207,0.0,0.0,96,0.00,,,0.01,VWS V14.00,2013-07-20 05:47:00,
2013-07-20 01:52:00,74.0,72.8,30.09,SSW,207,0.0,0.0,96,0.00,,,0.01,VWS V14.00,2013-07-20 05:52:00,
2013-07-20 01:57:00,74.0,72.8,30.09,SSW,207,0.0,0.0,96,0.00,,,0.01,VWS V14.00,2013-07-20 05:57:00,
2013-07-20 02:00:00,74.2,72.7,30.10,SSW,207,0.0,0.0,95,0.01,,,0.01,VWS V14.00,2013-07-20 06:00:00,
2013-07-20 02:02:00,73.9,72.7,30.09,SSW,207,0.0,0.0,96,0.00,,,0.01,VWS V14.00,2013-07-20 06:02:00,
2013-07-20 02:08:00,73.9,72.7,30.09,SSW,207,0.0,0.0,96,0.00,,,0.01,VWS V14.00,2013-07-20 06:08:00,
2013-07-20 02:13:00,73.9,72.7,30.09,SSW,207,0.0,0.0,96,0.00,,,0.01,VWS V14.00,2013-07-20 06:13:00,
2013-07-20 02:18:00,74.0,72.8,30.08,SSW,207,0.0,0.0,96,0.00,,,0.01,VWS V14.00,2013-07-20 06:18:00,
2013-07-20 02:23:00,74.0,72.8,30.08,SSW,207,0.0,0.0,96,0.00,,,0.01,VWS V14.00,2013-07-20 06:23:00,
2013-07-20 02:28:00,73.9,72.7,30.08,SSW,207,0.0,0.0,96,0.00,,,0.01,VWS V14.00,2013-07-20 06:28:00,
2013-07-20 02:30:00,74.0,72.5,30.09,SSW,207,0.0,0.0,95,0.01,,,0.01,VWS V14.00,2013-07-20 06:30:00,
2013-07-20 02:33:00,73.9,72.7,30.08,SSW,207,0.0,0.0,96,0.00,,,0.01,VWS V14.00,2013-07-20 06:33:00,
2013-07-20 02:38:00,73.9,72.7,30.08,SSW,207,0.0,0.0,96,0.00,,,0.01,VWS V14.00,2013-07-20 06:38:00,
2013-07-20 02:43:00,74.0,72.8,30.08,SSW,207,0.0,0.0,96,0.00,,,0.01,VWS V14.00,2013-07-20 06:43:00,
2013-07-20 02:48:00,74.1,72.9,30.08,SSW,207,0.0,0.0,96,0.00,,,0.01,VWS V14.00,2013-07-20 06:48:00,
2013-07-20 02:53:00,74.0,72.8,30.08,SSW,207,0.0,0.0,96,0.00,,,0.01,VWS V14.00,2013-07-20 06:53:00,
2013-07-20 02:58:00,74.1,72.9,30.07,SSW,207,0.0,0.0,96,0.00,,,0.01,VWS V14.00,2013-07-20 06:58:00,
2013-07-20 03:00:00,73.9,72.7,30.09,SSW,207,0.0,0.0,96,0.00,,,0.01,VWS V14.00,2013-07-20 07:00:00,
2013-07-20 03:03:00,74.1,72.9,30.07,SSW,207,0.0,0.0,96,0.00,,,0.01,VWS V14.00,2013-07-20 07:03:00,
2013-07-20 03:08:00,74.1,72.9,30.07,SSW,207,0.0,0.0,96,0.00,,,0.01,VWS V14.00,2013-07-20 07:08:00,
2013-07-20 03:13:00,74.1,72.9,30.07,SSW,207,0.0,0.0,96,0.00,,,0.01,VWS V14.00,2013-07-20 07:13:00,
2013-07-20 03:18:00,74.2,73.0,30.07,SSW,207,0.0,0.0,96,0.00,,,0.01,VWS V14.00,2013-07-20 07:18:00,
2013-07-20 03:23:00,74.1,72.9,30.07,SSW,207,0.0,0.0,96,0.00,,,0.01,VWS V14.00,2013-07-20 07:23:00,
2013-07-20 03:28:00,74.1,72.9,30.06,SSW,207,0.0,0.0,96,0.00,,,0.01,VWS V14.00,2013-07-20 07:28:00,
2013-07-20 03:30:00,73.9,72.7,30.08,SSW,207,0.0,0.0,96,0.00,,,0.01,VWS V14.00,2013-07-20 07:30:00,
2013-07-20 03:33:00,74.1,72.9,30.06,SSW,207,0.0,0.0,96,0.00,,,0.01,VWS V14.00,2013-07-20 07:33:00,
2013-07-20 03:38:00,74.1,72.9,30.06,SSW,207,0.0,0.0,96,0.00,,,0.01,VWS V14.00,2013-07-20 07:38:00,
2013-07-20 03:43:00,74.1,72.9,30.06,SSW,207,0.0,0.0,96,0.00,,,0.01,VWS V14.00,2013-07-20 07:43:00,
2013-07-20 03:48:00,74.1,72.9,30.06,SSW,207,0.0,0.0,96,0.00,,,0.01,VWS V14.00,2013-07-20 07:48:00,
2013-07-20 03:53:00,74.2,73.0,30.06,SSW,207,0.0,0.0,96,0.00,,,0.01,VWS V14.00,2013-07-20 07:53:00,
2013-07-20 03:59:00,74.2,73.0,30.06,SSW,207,0.0,0.0,96,0.00,,,0.01,VWS V14.00,2013-07-20 07:59:00,
2013-07-20 04:00:00,74.1,72.9,30.07,SSW,207,0.0,0.0,96,0.00,,,0.01,VWS V14.00,2013-07-20 08:00:00,
2013-07-20 04:04:00,74.2,73.0,30.06,SSW,207,0.0,0.0,96,0.00,,,0.01,VWS V14.00,2013-07-20 08:04:00,
2013-07-20 04:09:00,74.2,73.0,30.06,SSW,207,0.0,0.0,96,0.00,,,0.01,VWS V14.00,2013-07-20 08:09:00,
2013-07-20 04:14:00,74.2,73.0,30.06,SSW,207,0.0,0.0,96,0.00,,,0.01,VWS V14.00,2013-07-20 08:14:00,
2013-07-20 04:19:00,74.2,73.0,30.05,SSW,207,0.0,0.0,96,0.00,,,0.01,VWS V14.00,2013-07-20 08:19:00,
2013-07-20 04:24:00,74.2,73.0,30.05,SSW,207,0.0,0.0,96,0.00,,,0.01,VWS V14.00,2013-07-20 08:24:00,
2013-07-20 04:29:00,74.2,73.0,30.05,SSW,207,0.0,0.0,96,0.00,,,0.01,VWS V14.00,2013-07-20 08:29:00,
2013-07-20 04:30:00,74.1,72.9,30.06,SSW,207,0.0,0.0,96,0.00,,,0.01,VWS V14.00,2013-07-20 08:30:00,
2013-07-20 04:34:00,74.2,73.0,30.05,SSW,207,0.0,0.0,96,0.00,,,0.01,VWS V14.00,2013-07-20 08:34:00,
2013-07-20 04:39:00,74.2,73.0,30.05,SSW,207,0.0,0.0,96,0.00,,,0.01,VWS V14.00,2013-07-20 08:39:00,
2013-07-20 04:44:00,74.2,73.0,30.05,SSW,207,0.0,0.0,96,0.00,,,0.01,VWS V14.00,2013-07-20 08:44:00,
2013-07-20 04:49:00,74.2,73.0,30.05,SSW,207,0.0,0.0,96,0.00,,,0.01,VWS V14.00,2013-07-20 08:49:00,
2013-07-20 04:54:00,74.2,73.0,30.05,SSW,207,0.0,0.0,96,0.00,,,0.01,VWS V14.00,2013-07-20 08:54:00,
2013-07-20 04:59:00,74.1,72.9,30.05,SSW,207,0.0,0.0,96,0.00,,,0.01,VWS V14.00,2013-07-20 08:59:00,
2013-07-20 05:00:00,74.3,73.1,30.06,SSW,207,0.0,0.0,96,0.00,,,0.01,VWS V14.00,2013-07-20 09:00:00,
2013-07-20 05:04:00,74.0,72.8,30.05,SSW,207,0.0,0.0,96,0.00,,,0.01,VWS V14.00,2013-07-20 09:04:00,
2013-07-20 05:09:00,74.0,72.8,30.05,SSW,207,0.0,0.0,96,0.00,,,0.01,VWS V14.00,2013-07-20 09:09:00,
2013-07-20 05:14:00,74.1,72.9,30.05,SSW,207,0.0,0.0,96,0.00,,,0.01,VWS V14.00,2013-07-20 09:14:00,
2013-07-20 05:19:00,74.1,72.9,30.05,SSW,207,0.0,0.0,96,0.00,,,0.01,VWS V14.00,2013-07-20 09:19:00,
2013-07-20 05:24:00,74.1,72.9,30.05,SSW,207,0.0,0.0,96,0.00,,,0.01,VWS V14.00,2013-07-20 09:24:00,
2013-07-20 05:29:00,74.1,72.9,30.05,SSW,207,0.0,0.0,96,0.00,,,0.01,VWS V14.00,2013-07-20 09:29:00,
2013-07-20 05:30:00,74.2,73.0,30.05,SSW,207,0.0,0.0,96,0.00,,,0.01,VWS V14.00,2013-07-20 09:30:00,
2013-07-20 05:34:00,74.1,72.9,30.05,SSW,207,0.0,0.0,96,0.00,,,0.01,VWS V14.00,2013-07-20 09:34:00,
2013-07-20 05:39:00,74.1,72.9,30.06,SSW,207,0.0,0.0,96,0.00,,,0.01,VWS V14.00,2013-07-20 09:39:00,
2013-07-20 05:44:00,74.1,72.9,30.05,SSW,207,0.0,0.0,96,0.00,,,0.01,VWS V14.00,2013-07-20 09:44:00,
2013-07-20 05:50:00,74.1,72.9,30.06,SSW,207,0.0,0.0,96,0.00,,,0.01,VWS V14.00,2013-07-20 09:50:00,
2013-07-20 05:55:00,74.1,72.9,30.06,SSW,207,0.0,0.0,96,0.00,,,0.01,VWS V14.00,2013-07-20 09:55:00,
2013-07-20 06:00:00,74.1,72.9,30.06,SSW,206,0.0,0.0,96,0.00,,,0.01,VWS V14.00,2013-07-20 10:00:00,
2013-07-20 06:05:00,74.0,72.8,30.06,SSW,207,0.0,0.0,96,0.00,,,0.01,VWS V14.00,2013-07-20 10:05:00,
2013-07-20 06:10:00,74.0,72.8,30.06,SSW,207,0.0,0.0,96,0.00,,,0.01,VWS V14.00,2013-07-20 10:10:00,
2013-07-20 06:15:00,74.0,72.8,30.06,SSW,207,0.0,0.0,96,0.00,,,0.01,VWS V14.00,2013-07-20 10:15:00,
2013-07-20 06:20:00,74.0,72.8,30.06,SSW,207,0.0,0.0,96,0.00,,,0.01,VWS V14.00,2013-07-20 10:20:00,
2013-07-20 06:25:00,73.9,72.7,30.07,SSW,207,0.0,0.0,96,0.00,,,0.01,VWS V14.00,2013-07-20 10:25:00,
2013-07-20 06:30:00,73.9,72.7,30.07,SSW,207,0.0,0.0,96,0.00,,,0.01,VWS V14.00,2013-07-20 10:30:00,
2013-07-20 06:35:00,73.8,72.6,30.07,SSW,207,0.0,0.0,96,0.00,,,0.01,VWS V14.00,2013-07-20 10:35:00,
2013-07-20 06:40:00,73.8,72.6,30.07,SSW,207,0.0,0.0,96,0.00,,,0.01,VWS V14.00,2013-07-20 10:40:00,
2013-07-20 06:45:00,73.7,72.5,30.07,SSW,207,0.0,0.0,96,0.00,,,0.01,VWS V14.00,2013-07-20 10:45:00,
2013-07-20 06:50:00,73.7,72.5,30.07,SSW,207,0.0,0.0,96,0.00,,,0.01,VWS V14.00,2013-07-20 10:50:00,
2013-07-20 06:55:00,73.7,72.5,30.08,SSW,207,0.0,0.0,96,0.00,,,0.01,VWS V14.00,2013-07-20 10:55:00,
2013-07-20 07:00:00,73.8,72.6,30.08,SSW,207,0.0,0.0,96,0.00,,,0.01,VWS V14.00,2013-07-20 11:00:00,
2013-07-20 07:05:00,73.9,72.7,30.08,SSW,207,0.0,0.0,96,0.00,,,0.01,VWS V14.00,2013-07-20 11:05:00,
2013-07-20 07:10:00,73.9,72.7,30.08,SSW,207,0.0,0.0,96,0.00,,,0.01,VWS V14.00,2013-07-20 11:10:00,
2013-07-20 07:15:00,73.9,72.7,30.08,SSW,207,0.0,0.0,96,0.00,,,0.01,VWS V14.00,2013-07-20 11:15:00,
2013-07-20 07:20:00,74.0,72.8,30.08,SSW,207,0.0,0.0,96,0.00,,,0.01,VWS V14.00,2013-07-20 11:20:00,
2013-07-20 07:25:00,74.0,72.8,30.08,SSW,207,0.0,0.0,96,0.00,,,0.01,VWS V14.00,2013-07-20 11:25:00,
2013-07-20 07:30:00,74.0,72.8,30.08,SSW,207,0.0,0.0,96,0.00,,,0.01,VWS V14.00,2013-07-20 11:30:00,
2013-07-20 07:35:00,73.9,72.7,30.08,SSW,207,0.0,0.0,96,0.00,,,0.01,VWS V14.00,2013-07-20 11:35:00,
2013-07-20 07:41:00,74.0,72.8,30.08,SSW,207,0.0,0.0,96,0.00,,,0.01,VWS V14.00,2013-07-20 11:41:00,
2013-07-20 07:46:00,74.0,72.8,30.09,SSW,207,0.0,0.0,96,0.00,,,0.01,VWS V14.00,2013-07-20 11:46:00,
2013-07-20 07:51:00,74.0,72.8,30.09,SSW,207,0.0,0.0,96,0.00,,,0.01,VWS V14.00,2013-07-20 11:51:00,
2013-07-20 07:56:00,74.0,72.8,30.09,SSW,207,0.0,0.0,96,0.00,,,0.01,VWS V14.00,2013-07-20 11:56:00,
2013-07-20 08:00:00,73.8,72.6,30.08,SSW,207,0.0,0.0,96,0.00,,,0.01,VWS V14.00,2013-07-20 12:00:00,
2013-07-20 08:01:00,74.1,72.9,30.09,SSW,207,0.0,0.0,96,0.00,,,0.01,VWS V14.00,2013-07-20 12:01:00,
2013-07-20 08:06:00,74.2,73.0,30.09,SSW,207,0.0,0.0,96,0.00,,,0.01,VWS V14.00,2013-07-20 12:06:00,
2013-07-20 08:11:00,74.3,73.1,30.09,SSW,207,0.0,0.0,96,0.00,,,0.01,VWS V14.00,2013-07-20 12:11:00,
2013-07-20 08:16:00,74.4,73.2,30.09,SSW,207,0.0,0.0,96,0.00,,,0.01,VWS V14.00,2013-07-20 12:16:00,
2013-07-20 08:21:00,74.5,73.3,30.09,SSW,207,0.0,0.0,96,0.00,,,0.01,VWS V14.00,2013-07-20 12:21:00,
2013-07-20 08:26:00,74.7,73.5,30.09,SSW,207,0.0,0.0,96,0.00,,,0.01,VWS V14.00,2013-07-20 12:26:00,
2013-07-20 08:30:00,73.9,72.7,30.08,SSW,207,0.0,0.0,96,0.00,,,0.01,VWS V14.00,2013-07-20 12:30:00,
2013-07-20 08:31:00,74.8,73.6,30.09,SSW,207,0.0,0.0,96,0.00,,,0.01,VWS V14.00,2013-07-20 12:31:00,
2013-07-20 08:36:00,75.0,73.8,30.09,SSW,207,0.0,0.0,96,0.00,,,0.01,VWS V14.00,2013-07-20 12:36:00,
2013-07-20 08:41:00,75.2,74.0,30.09,SSW,207,0.0,0.0,96,0.00,,,0.01,VWS V14.00,2013-07-20 12:41:00,
2013-07-20 08:46:00,75.5,74.3,30.09,SSW,207,0.0,1.0,96,0.00,,,0.01,VWS V14.00,2013-07-20 12:46:00,
2013-07-20 08:51:00,75.5,74.3,30.09,SSW,207,0.0,1.0,96,0.00,,,0.01,VWS V14.00,2013-07-20 12:51:00,
2013-07-20 08:56:00,75.7,74.5,30.10,SSW,207,0.0,2.0,96,0.00,,,0.01,VWS V14.00,2013-07-20 12:56:00,
2013-07-20 09:00:00,74.1,72.9,30.09,SSW,207,0.0,0.0,96,0.00,,,0.01,VWS V14.00,2013-07-20 13:00:00,
2013-07-20 09:01:00,75.8,74.6,30.10,SSW,207,0.0,2.0,96,0.00,,,0.01,VWS V14.00,2013-07-20 13:01:00,
2013-07-20 09:06:00,76.1,74.9,30.10,SSW,207,0.0,0.0,96,0.00,,,0.01,VWS V14.00,2013-07-20 13:06:00,
2013-07-20 09:11:00,76.3,75.1,30.10,SSW,207,0.0,1.0,96,0.00,,,0.01,VWS V14.00,2013-07-20 13:11:00,
2013-07-20 09:16:00,76.5,75.3,30.10,SSW,207,0.0,1.0,96,0.00,,,0.01,VWS V14.00,2013-07-20 13:16:00,
2013-07-20 09:21:00,76.7,75.5,30.10,SSW,207,0.0,1.0,96,0.00,,,0.01,VWS V14.00,2013-07-20 13:21:00,
2013-07-20 09:26:00,76.9,75.7,30.10,SSW,207,0.0,1.0,96,0.00,,,0.01,VWS V14.00,2013-07-20 13:26:00,
2013-07-20 09:30:00,74.8,73.6,30.09,SSW,207,0.0,0.0,96,0.00,,,0.01,VWS V14.00,2013-07-20 13:30:00,
2013-07-20 09:32:00,77.2,76.0,30.10,SSW,207,0.0,1.0,96,0.00,,,0.01,VWS V14.00,2013-07-20 13:32:00,
2013-07-20 09:37:00,77.5,76.3,30.10,SSW,207,0.0,0.0,96,0.00,,,0.01,VWS V14.00,2013-07-20 13:37:00,
2013-07-20 09:42:00,77.6,76.4,30.10,SSW,207,0.0,1.0,96,0.00,,,0.01,VWS V14.00,2013-07-20 13:42:00,
2013-07-20 09:47:00,77.8,76.6,30.10,SW,229,0.0,3.0,96,0.00,,,0.01,VWS V14.00,2013-07-20 13:47:00,
2013-07-20 09:52:00,78.1,76.9,30.10,SW,227,0.0,3.0,96,0.00,,,0.01,VWS V14.00,2013-07-20 13:52:00,
2013-07-20 09:57:00,78.4,77.2,30.10,WSW,245,0.0,3.0,96,0.00,,,0.01,VWS V14.00,2013-07-20 13:57:00,
2013-07-20 10:00:00,75.8,74.6,30.10,SSW,207,0.0,2.0,96,0.00,,,0.01,VWS V14.00,2013-07-20 14:00:00,
2013-07-20 10:02:00,78.7,77.5,30.10,SW,217,0.0,0.0,96,0.00,,,0.01,VWS V14.00,2013-07-20 14:02:00,
2013-07-20 10:07:00,78.9,77.7,30.10,SW,217,0.0,0.0,96,0.00,,,0.01,VWS V14.00,2013-07-20 14:07:00,
2013-07-20 10:12:00,79.4,78.2,30.10,SW,215,0.0,0.0,96,0.00,,,0.01,VWS V14.00,2013-07-20 14:12:00,
2013-07-20 10:17:00,79.5,78.3,30.10,South,172,0.0,4.0,96,0.00,,,0.01,VWS V14.00,2013-07-20 14:17:00,
2013-07-20 10:22:00,79.6,78.4,30.10,SW,226,0.0,4.0,96,0.00,,,0.01,VWS V14.00,2013-07-20 14:22:00,
2013-07-20 10:27:00,79.9,78.7,30.10,SSW,211,0.0,4.0,96,0.00,,,0.01,VWS V14.00,2013-07-20 14:27:00,
2013-07-20 10:30:00,77.2,76.0,30.10,SSW,207,0.0,1.0,96,0.00,,,0.01,VWS V14.00,2013-07-20 14:30:00,
2013-07-20 10:32:00,80.2,79.0,30.11,SSW,210,0.0,0.0,96,0.00,,,0.01,VWS V14.00,2013-07-20 14:32:00,
2013-07-20 10:37:00,80.5,79.3,30.10,SSW,210,0.0,0.0,96,0.00,,,0.01,VWS V14.00,2013-07-20 14:37:00,
2013-07-20 10:42:00,80.7,79.5,30.11,SSW,210,0.0,0.0,96,0.00,,,0.01,VWS V14.00,2013-07-20 14:42:00,
2013-07-20 10:47:00,80.8,79.6,30.10,SSW,200,0.0,1.0,96,0.00,,,0.01,VWS V14.00,2013-07-20 14:47:00,
2013-07-20 10:52:00,81.1,79.9,30.10,South,173,0.0,1.0,96,0.00,,,0.01,VWS V14.00,2013-07-20 14:52:00,
2013-07-20 10:57:00,81.4,80.2,30.10,South,174,0.0,1.0,96,0.00,,,0.01,VWS V14.00,2013-07-20 14:57:00,
2013-07-20 11:00:00,78.7,77.5,30.10,SW,217,0.0,3.0,96,0.00,,,0.01,VWS V14.00,2013-07-20 15:00:00,
2013-07-20 11:02:00,81.7,80.1,30.10,SW,230,0.0,0.0,95,0.00,,,0.01,VWS V14.00,2013-07-20 15:02:00,
2013-07-20 11:08:00,82.1,80.5,30.10,SW,223,0.0,2.0,95,0.00,,,0.01,VWS V14.00,2013-07-20 15:08:00,
2013-07-20 11:13:00,82.3,80.4,30.10,SSE,156,0.0,2.0,94,0.00,,,0.01,VWS V14.00,2013-07-20 15:13:00,
2013-07-20 11:18:00,82.4,79.8,30.10,SE,145,0.0,2.0,92,0.00,,,0.01,VWS V14.00,2013-07-20 15:18:00,
2013-07-20 11:23:00,83.0,80.1,30.10,SW,226,0.0,2.0,91,0.00,,,0.01,VWS V14.00,2013-07-20 15:23:00,
2013-07-20 11:28:00,83.4,79.8,30.10,SSW,200,0.0,2.0,89,0.00,,,0.01,VWS V14.00,2013-07-20 15:28:00,
2013-07-20 11:30:00,80.2,79.0,30.11,SSW,210,0.0,4.0,96,0.00,,,0.01,VWS V14.00,2013-07-20 15:30:00,
2013-07-20 11:33:00,84.0,80.1,30.10,SW,229,0.0,0.0,88,0.00,,,0.01,VWS V14.00,2013-07-20 15:33:00,
2013-07-20 11:38:00,84.3,79.3,30.10,SW,233,0.0,1.0,85,0.00,,,0.01,VWS V14.00,2013-07-20 15:38:00,
2013-07-20 11:43:00,84.6,79.6,30.10,SW,233,0.0,1.0,85,0.00,,,0.01,VWS V14.00,2013-07-20 15:43:00,
2013-07-20 11:48:00,84.9,79.5,30.10,SW,217,0.0,1.0,84,0.00,,,0.01,VWS V14.00,2013-07-20 15:48:00,
2013-07-20 11:53:00,85.0,79.3,30.11,SW,218,0.0,1.0,83,0.00,,,0.01,VWS V14.00,2013-07-20 15:53:00,
2013-07-20 11:58:00,85.3,79.2,30.10,SW,218,0.0,1.0,82,0.00,,,0.01,VWS V14.00,2013-07-20 15:58:00,
2013-07-20 12:00:00,81.6,80.0,30.10,SW,230,0.0,2.0,95,0.00,,,0.01,VWS V14.00,2013-07-20 16:00:00,
2013-07-20 12:03:00,85.5,79.0,30.11,SW,235,0.0,2.0,81,0.00,,,0.01,VWS V14.00,2013-07-20 16:03:00,
2013-07-20 12:08:00,85.4,77.4,30.10,SSW,205,0.0,4.0,77,0.00,,,0.01,VWS V14.00,2013-07-20 16:08:00,
2013-07-20 12:13:00,85.7,78.4,30.10,NW,321,0.0,4.0,79,0.00,,,0.01,VWS V14.00,2013-07-20 16:13:00,
2013-07-20 12:18:00,85.8,78.2,30.10,SSW,195,0.0,4.0,78,0.00,,,0.01,VWS V14.00,2013-07-20 16:18:00,
2013-07-20 12:23:00,86.0,78.3,30.10,SSW,196,0.0,4.0,78,0.00,,,0.01,VWS V14.00,2013-07-20 16:23:00,
2013-07-20 12:28:00,86.0,77.9,30.10,SW,229,0.0,4.0,77,0.00,,,0.01,VWS V14.00,2013-07-20 16:28:00,
2013-07-20 12:30:00,83.8,79.9,30.10,SW,229,0.0,2.0,88,0.00,,,0.01,VWS V14.00,2013-07-20 16:30:00,
2013-07-20 12:33:00,86.3,78.2,30.10,SW,227,0.0,0.0,77,0.00,,,0.01,VWS V14.00,2013-07-20 16:33:00,
2013-07-20 12:38:00,86.6,78.1,30.10,SE,134,0.0,0.0,76,0.00,,,0.01,VWS V14.00,2013-07-20 16:38:00,
2013-07-20 12:43:00,86.7,78.2,30.10,SE,134,0.0,0.0,76,0.00,,,0.01,VWS V14.00,2013-07-20 16:43:00,
2013-07-20 12:48:00,86.9,78.4,30.10,WSW,237,0.0,4.0,76,0.00,,,0.01,VWS V14.00,2013-07-20 16:48:00,
2013-07-20 12:53:00,87.0,77.7,30.10,SSE,159,0.0,4.0,74,0.00,,,0.01,VWS V14.00,2013-07-20 16:53:00,
2013-07-20 12:59:00,87.1,77.4,30.10,SSE,159,0.0,4.0,73,0.00,,,0.01,VWS V14.00,2013-07-20 16:59:00,
2013-07-20 13:00:00,85.4,78.9,30.10,SW,218,0.0,1.0,81,0.00,,,0.01,VWS V14.00,2013-07-20 17:00:00,
2013-07-20 13:04:00,87.9,77.8,30.09,South,187,0.0,0.0,72,0.00,,,0.01,VWS V14.00,2013-07-20 17:04:00,
2013-07-20 13:09:00,88.3,76.8,30.09,South,170,0.0,0.0,69,0.00,,,0.01,VWS V14.00,2013-07-20 17:09:00,
2013-07-20 13:14:00,88.0,77.0,30.09,South,170,0.0,0.0,70,0.00,,,0.01,VWS V14.00,2013-07-20 17:14:00,
2013-07-20 13:19:00,87.9,77.3,30.08,SSW,213,1.0,1.0,71,0.00,,,0.01,VWS V14.00,2013-07-20 17:19:00,
2013-07-20 13:24:00,87.9,76.5,30.08,SSW,203,0.0,1.0,69,0.00,,,0.01,VWS V14.00,2013-07-20 17:24:00,
2013-07-20 13:29:00,87.7,76.7,30.08,SSW,203,0.0,1.0,70,0.00,,,0.01,VWS V14.00,2013-07-20 17:29:00,
2013-07-20 13:30:00,86.1,78.1,30.10,SW,217,0.0,5.0,77,0.00,,,0.01,VWS V14.00,2013-07-20 17:30:00,
2013-07-20 13:34:00,88.1,76.2,30.08,SW,232,0.0,0.0,68,0.00,,,0.01,VWS V14.00,2013-07-20 17:34:00,
2013-07-20 13:39:00,88.3,77.3,30.07,SW,215,0.0,0.0,70,0.00,,,0.01,VWS V14.00,2013-07-20 17:39:00,
2013-07-20 13:44:00,88.3,76.4,30.07,SW,216,0.0,0.0,68,0.00,,,0.01,VWS V14.00,2013-07-20 17:44:00,
2013-07-20 13:49:00,88.8,76.4,30.07,SW,216,0.0,2.0,67,0.00,,,0.01,VWS V14.00,2013-07-20 17:49:00,
2013-07-20 13:54:00,89.1,76.7,30.07,SW,227,0.0,2.0,67,0.00,,,0.01,VWS V14.00,2013-07-20 17:54:00,
2013-07-20 13:59:00,89.7,76.4,30.07,SE,144,0.0,2.0,65,0.00,,,0.01,VWS V14.00,2013-07-20 17:59:00,
2013-07-20 14:00:00,87.6,77.5,30.10,SW,221,0.0,4.0,72,0.00,,,0.01,VWS V14.00,2013-07-20 18:00:00,
2013-07-20 14:04:00,89.8,76.0,30.06,SW,226,0.0,0.0,64,0.00,,,0.01,VWS V14.00,2013-07-20 18:04:00,
2013-07-20 14:09:00,89.7,77.7,30.06,SW,226,0.0,0.0,68,0.00,,,0.01,VWS V14.00,2013-07-20 18:09:00,
2013-07-20 14:14:00,89.6,76.7,30.06,SW,227,0.0,2.0,66,0.00,,,0.01,VWS V14.00,2013-07-20 18:14:00,
2013-07-20 14:19:00,89.5,77.6,30.05,WSW,237,0.0,4.0,68,0.00,,,0.01,VWS V14.00,2013-07-20 18:19:00,
2013-07-20 14:25:00,89.9,76.1,30.05,WSW,237,0.0,4.0,64,0.00,,,0.01,VWS V14.00,2013-07-20 18:25:00,
2013-07-20 14:30:00,90.4,76.6,30.05,South,188,0.0,4.0,64,0.00,,,0.01,VWS V14.00,2013-07-20 18:30:00,
2013-07-20 14:35:00,90.9,77.0,30.05,SSW,200,0.0,0.0,64,0.00,,,0.01,VWS V14.00,2013-07-20 18:35:00,
2013-07-20 14:40:00,90.8,75.5,30.05,SSW,199,1.0,1.0,61,0.00,,,0.01,VWS V14.00,2013-07-20 18:40:00,
2013-07-20 14:46:00,91.2,76.4,30.05,South,180,5.0,6.0,62,0.00,,,0.01,VWS V14.00,2013-07-20 18:46:00,
2013-07-20 14:52:00,91.1,76.3,30.05,SSW,194,0.0,6.0,62,0.00,,,0.01,VWS V14.00,2013-07-20 18:52:00,
2013-07-20 14:58:00,91.8,76.9,30.05,WSW,242,0.0,6.0,62,0.00,,,0.01,VWS V14.00,2013-07-20 18:58:00,
2013-07-20 15:00:00,89.8,76.0,30.07,SW,226,0.0,2.0,64,0.00,,,0.01,VWS V14.00,2013-07-20 19:00:00,
2013-07-20 15:03:00,91.6,76.2,30.04,SSE,160,0.0,0.0,61,0.00,,,0.01,VWS V14.00,2013-07-20 19:03:00,
2013-07-20 15:10:00,90.7,76.4,30.04,SSE,166,0.0,1.0,63,0.00,,,0.01,VWS V14.00,2013-07-20 19:10:00,
2013-07-20 15:15:00,90.1,75.3,30.03,South,186,0.0,1.0,62,0.00,,,0.01,VWS V14.00,2013-07-20 19:15:00,
2013-07-20 15:21:00,89.7,75.0,30.03,SSW,192,0.0,7.0,62,0.00,,,0.01,VWS V14.00,2013-07-20 19:21:00,
2013-07-20 15:26:00,89.5,76.7,30.03,SSW,207,0.0,7.0,66,0.00,,,0.01,VWS V14.00,2013-07-20 19:26:00,
2013-07-20 15:30:00,90.5,77.1,30.05,SSW,199,0.0,4.0,65,0.00,,,0.01,VWS V14.00,2013-07-20 19:30:00,
2013-07-20 15:32:00,89.6,75.3,30.03,SSW,207,0.0,7.0,63,0.00,,,0.01,VWS V14.00,2013-07-20 19:32:00,
2013-07-20 15:37:00,90.4,76.6,30.03,SSW,207,0.0,0.0,64,0.00,,,0.01,VWS V14.00,2013-07-20 19:37:00,
2013-07-20 15:43:00,90.9,76.6,30.03,SSW,207,0.0,0.0,63,0.00,,,0.01,VWS V14.00,2013-07-20 19:43:00,
2013-07-20 15:48:00,90.2,74.9,30.02,SSW,207,0.0,0.0,61,0.00,,,0.01,VWS V14.00,2013-07-20 19:48:00,
2013-07-20 15:53:00,89.4,76.1,30.02,SSW,207,0.0,0.0,65,0.00,,,0.01,VWS V14.00,2013-07-20 19:53:00,
2013-07-20 15:58:00,88.4,75.1,30.03,SW,222,0.0,1.0,65,0.00,,,0.01,VWS V14.00,2013-07-20 19:58:00,
2013-07-20 16:00:00,91.8,76.4,30.04,SSE,159,0.0,6.0,61,0.00,,,0.01,VWS V14.00,2013-07-20 20:00:00,
2013-07-20 16:04:00,86.6,73.9,30.03,South,178,0.0,1.0,66,0.00,,,0.01,VWS V14.00,2013-07-20 20:04:00,
2013-07-20 16:09:00,85.2,73.9,30.03,ESE,107,0.0,6.0,69,0.00,,,0.01,VWS V14.00,2013-07-20 20:09:00,
2013-07-20 16:15:00,84.2,73.8,30.03,South,173,0.0,6.0,71,0.00,,,0.01,VWS V14.00,2013-07-20 20:15:00,
2013-07-20 16:21:00,83.8,73.8,30.03,SSE,168,0.0,6.0,72,0.00,,,0.01,VWS V14.00,2013-07-20 20:21:00,
2013-07-20 16:26:00,84.0,74.0,30.03,WSW,242,4.0,7.0,72,0.00,,,0.01,VWS V14.00,2013-07-20 20:26:00,
2013-07-20 16:30:00,89.6,75.3,30.03,SSW,207,0.0,7.0,63,0.00,,,0.01,VWS V14.00,2013-07-20 20:30:00,
2013-07-20 16:31:00,83.9,73.5,30.03,South,169,0.0,9.0,71,0.00,,,0.01,VWS V14.00,2013-07-20 20:31:00,
2013-07-20 16:36:00,83.6,73.6,30.03,SSE,148,0.0,6.0,72,0.00,,,0.01,VWS V14.00,2013-07-20 20:36:00,
2013-07-20 16:42:00,83.1,73.6,30.03,SSE,147,0.0,6.0,73,0.00,,,0.01,VWS V14.00,2013-07-20 20:42:00,
2013-07-20 16:47:00,82.6,73.9,30.04,South,169,0.0,6.0,75,0.00,,,0.01,VWS V14.00,2013-07-20 20:47:00,
2013-07-20 16:53:00,82.2,73.5,30.03,South,191,0.0,6.0,75,0.00,,,0.01,VWS V14.00,2013-07-20 20:53:00,
2013-07-20 16:58:00,82.1,73.8,30.03,SE,146,0.0,6.0,76,0.00,,,0.01,VWS V14.00,2013-07-20 20:58:00,
2013-07-20 17:00:00,87.1,74.4,30.03,East,86,0.0,1.0,66,0.00,,,0.01,VWS V14.00,2013-07-20 21:00:00,
2013-07-20 17:03:00,82.0,73.7,30.02,South,177,0.0,0.0,76,0.00,,,0.01,VWS V14.00,2013-07-20 21:03:00,
2013-07-20 17:09:00,82.0,74.5,30.01,South,173,0.0,4.0,78,0.00,,,0.01,VWS V14.00,2013-07-20 21:09:00,
2013-07-20 17:15:00,82.0,74.5,30.01,South,173,0.0,4.0,78,0.00,,,0.01,VWS V14.00,2013-07-20 21:15:00,
2013-07-20 17:20:00,82.0,74.8,30.01,SE,146,0.0,4.0,79,0.00,,,0.01,VWS V14.00,2013-07-20 21:20:00,
2013-07-20 17:25:00,82.0,74.5,30.01,South,183,0.0,4.0,78,0.00,,,0.01,VWS V14.00,2013-07-20 21:25:00,
2013-07-20 17:30:00,83.9,73.9,30.03,South,169,1.0,9.0,72,0.00,,,0.01,VWS V14.00,2013-07-20 21:30:00,
2013-07-20 17:31:00,82.0,74.5,30.01,West,259,0.0,4.0,78,0.00,,,0.01,VWS V14.00,2013-07-20 21:31:00,
2013-07-20 17:36:00,81.6,74.5,30.02,West,259,0.0,0.0,79,0.00,,,0.01,VWS V14.00,2013-07-20 21:36:00,
2013-07-20 17:41:00,81.1,74.3,30.02,West,259,0.0,0.0,80,0.00,,,0.01,VWS V14.00,2013-07-20 21:41:00,
2013-07-20 17:47:00,80.7,74.0,30.03,West,259,0.0,0.0,80,0.00,,,0.01,VWS V14.00,2013-07-20 21:47:00,
2013-07-20 17:52:00,80.5,74.1,30.03,West,259,0.0,0.0,81,0.00,,,0.01,VWS V14.00,2013-07-20 21:52:00,
2013-07-20 17:57:00,80.3,74.3,30.03,West,259,0.0,0.0,82,0.00,,,0.01,VWS V14.00,2013-07-20 21:57:00,
2013-07-20 18:00:00,82.0,74.1,30.02,SW,217,0.0,6.0,77,0.00,,,0.01,VWS V14.00,2013-07-20 22:00:00,
2013-07-20 18:02:00,80.0,74.0,30.03,West,259,0.0,0.0,82,0.00,,,0.01,VWS V14.00,2013-07-20 22:02:00,
2013-07-20 18:07:00,79.8,73.8,30.04,West,259,0.0,0.0,82,0.00,,,0.01,VWS V14.00,2013-07-20 22:07:00,
2013-07-20 18:12:00,79.7,73.7,30.05,WSW,250,0.0,1.0,82,0.00,,,0.01,VWS V14.00,2013-07-20 22:12:00,
2013-07-20 18:17:00,79.5,73.2,30.05,WSW,250,0.0,1.0,81,0.00,,,0.01,VWS V14.00,2013-07-20 22:17:00,
2013-07-20 18:23:00,79.4,72.3,30.05,WSW,250,0.0,1.0,79,0.00,,,0.01,VWS V14.00,2013-07-20 22:23:00,
2013-07-20 18:28:00,79.3,72.2,30.05,WSW,250,0.0,1.0,79,0.00,,,0.01,VWS V14.00,2013-07-20 22:28:00,
2013-07-20 18:30:00,81.9,74.4,30.01,West,259,0.0,4.0,78,0.00,,,0.01,VWS V14.00,2013-07-20 22:30:00,
2013-07-20 18:33:00,79.2,71.8,30.05,WSW,250,0.0,0.0,78,0.00,,,0.01,VWS V14.00,2013-07-20 22:33:00,
2013-07-20 18:39:00,79.3,72.6,30.05,WSW,250,0.0,0.0,80,0.00,,,0.01,VWS V14.00,2013-07-20 22:39:00,
2013-07-20 18:45:00,79.4,72.3,30.05,SW,221,0.0,3.0,79,0.00,,,0.01,VWS V14.00,2013-07-20 22:45:00,
2013-07-20 18:50:00,79.5,72.4,30.06,South,180,0.0,3.0,79,0.00,,,0.01,VWS V14.00,2013-07-20 22:50:00,
2013-07-20 18:56:00,79.7,73.0,30.06,SW,217,0.0,3.0,80,0.00,,,0.01,VWS V14.00,2013-07-20 22:56:00,
2013-07-20 19:00:00,80.0,74.0,30.03,West,259,0.0,0.0,82,0.00,,,0.01,VWS V14.00,2013-07-20 23:00:00,
2013-07-20 19:01:00,79.6,72.9,30.06,SSW,200,0.0,3.0,80,0.00,,,0.01,VWS V14.00,2013-07-20 23:01:00,
2013-07-20 19:07:00,79.5,73.2,30.06,SSW,200,0.0,0.0,81,0.00,,,0.01,VWS V14.00,2013-07-20 23:07:00,
2013-07-20 19:12:00,79.4,73.4,30.06,SSW,199,0.0,0.0,82,0.00,,,0.01,VWS V14.00,2013-07-20 23:12:00,
2013-07-20 19:17:00,79.4,73.4,30.06,SSW,199,0.0,0.0,82,0.00,,,0.01,VWS V14.00,2013-07-20 23:17:00,
2013-07-20 19:22:00,79.3,73.3,30.06,SSW,200,0.0,0.0,82,0.00,,,0.01,VWS V14.00,2013-07-20 23:22:00,
2013-07-20 19:27:00,79.2,73.6,30.06,SSW,200,0.0,0.0,83,0.00,,,0.01,VWS V14.00,2013-07-20 23:27:00,
2013-07-20 19:30:00,79.2,71.8,30.05,WSW,250,0.0,1.0,78,0.00,,,0.01,VWS V14.00,2013-07-20 23:30:00,
2013-07-20 19:34:00,78.9,73.3,30.06,SSW,199,0.0,0.0,83,0.00,,,0.01,VWS V14.00,2013-07-20 23:34:00,
2013-07-20 19:40:00,78.8,73.6,30.06,SSW,200,0.0,0.0,84,0.00,,,0.01,VWS V14.00,2013-07-20 23:40:00,
2013-07-20 19:45:00,78.7,73.5,30.06,SSW,199,0.0,0.0,84,0.00,,,0.01,VWS V14.00,2013-07-20 23:45:00,
2013-07-20 19:51:00,78.7,73.8,30.06,SSW,199,0.0,0.0,85,0.00,,,0.01,VWS V14.00,2013-07-20 23:51:00,
2013-07-20 19:57:00,78.6,73.7,30.06,SSW,200,0.0,0.0,85,0.00,,,0.01,VWS V14.00,2013-07-20 23:57:00,
2013-07-20 20:00:00,79.6,72.9,30.06,SSW,199,0.0,3.0,80,0.00,,,0.01,VWS V14.00,2013-07-21 00:00:00,
2013-07-20 20:02:00,78.3,73.8,30.06,SSW,200,0.0,0.0,86,0.00,,,0.01,VWS V14.00,2013-07-21 00:02:00,
2013-07-20 20:07:00,78.1,73.9,30.06,SSW,200,0.0,0.0,87,0.00,,,0.01,VWS V14.00,2013-07-21 00:07:00,
2013-07-20 20:12:00,78.0,73.8,30.06,SSW,200,0.0,0.0,87,0.00,,,0.01,VWS V14.00,2013-07-21 00:12:00,
2013-07-20 20:18:00,77.8,73.6,30.06,SSW,200,0.0,0.0,87,0.00,,,0.01,VWS V14.00,2013-07-21 00:18:00,
2013-07-20 20:23:00,77.7,73.5,30.06,SSW,199,0.0,0.0,87,0.00,,,0.01,VWS V14.00,2013-07-21 00:23:00,
2013-07-20 20:28:00,77.7,73.9,30.05,SSW,200,0.0,0.0,88,0.00,,,0.01,VWS V14.00,2013-07-21 00:28:00,
2013-07-20 20:30:00,79.1,73.5,30.06,SSW,200,0.0,0.0,83,0.00,,,0.01,VWS V14.00,2013-07-21 00:30:00,
2013-07-20 20:33:00,77.6,73.8,30.05,SSW,200,0.0,0.0,88,0.01,,,0.02,VWS V14.00,2013-07-21 00:33:00,
2013-07-20 20:39:00,77.5,74.0,30.05,SSW,200,0.0,0.0,89,0.01,,,0.02,VWS V14.00,2013-07-21 00:39:00,
2013-07-20 20:45:00,77.5,74.0,30.06,SSW,200,0.0,0.0,89,0.01,,,0.02,VWS V14.00,2013-07-21 00:45:00,
2013-07-20 20:50:00,77.4,74.2,30.06,SSW,199,0.0,0.0,90,0.01,,,0.02,VWS V14.00,2013-07-21 00:50:00,
2013-07-20 20:55:00,77.2,74.0,30.06,SSW,199,0.0,0.0,90,0.01,,,0.02,VWS V14.00,2013-07-21 00:55:00,
2013-07-20 21:00:00,78.3,73.8,30.06,SSW,199,0.0,0.0,86,0.00,,,0.01,VWS V14.00,2013-07-21 01:00:00,
2013-07-20 21:01:00,77.2,74.0,30.06,SSW,199,0.0,0.0,90,0.01,,,0.02,VWS V14.00,2013-07-21 01:01:00,
2013-07-20 21:06:00,77.0,74.2,30.06,SSW,200,0.0,0.0,91,0.01,,,0.02,VWS V14.00,2013-07-21 01:06:00,
2013-07-20 21:11:00,77.0,74.2,30.06,SSW,200,0.0,0.0,91,0.01,,,0.02,VWS V14.00,2013-07-21 01:11:00,
2013-07-20 21:16:00,77.0,74.2,30.06,SSW,200,0.0,0.0,91,0.01,,,0.02,VWS V14.00,2013-07-21 01:16:00,
2013-07-20 21:22:00,77.1,74.6,30.06,SSW,199,0.0,0.0,92,0.01,,,0.02,VWS V14.00,2013-07-21 01:22:00,
2013-07-20 21:27:00,77.0,74.5,30.06,SSW,200,0.0,0.0,92,0.02,,,0.03,VWS V14.00,2013-07-21 01:27:00,
2013-07-20 21:30:00,77.7,73.9,30.06,SSW,200,0.0,0.0,88,0.01,,,0.02,VWS V14.00,2013-07-21 01:30:00,
2013-07-20 21:32:00,76.9,74.4,30.06,SSW,200,0.0,0.0,92,0.01,,,0.03,VWS V14.00,2013-07-21 01:32:00,
2013-07-20 21:39:00,76.8,74.3,30.06,SSW,200,0.0,0.0,92,0.01,,,0.03,VWS V14.00,2013-07-21 01:39:00,
2013-07-20 21:44:00,76.7,74.2,30.05,SSW,199,0.0,0.0,92,0.01,,,0.03,VWS V14.00,2013-07-21 01:44:00,
2013-07-20 21:49:00,76.6,74.4,30.05,SSW,200,0.0,0.0,93,0.01,,,0.03,VWS V14.00,2013-07-21 01:49:00,
2013-07-20 21:54:00,76.6,74.4,30.05,SSW,199,0.0,0.0,93,0.01,,,0.03,VWS V14.00,2013-07-21 01:54:00,
2013-07-20 22:00:00,76.5,74.3,30.05,SSW,200,0.0,0.0,93,0.01,,,0.03,VWS V14.00,2013-07-21 02:00:00,
2013-07-20 22:05:00,76.4,74.2,30.05,SSW,200,0.0,0.0,93,0.01,,,0.03,VWS V14.00,2013-07-21 02:05:00,
2013-07-20 22:10:00,76.3,74.1,30.05,SSW,200,0.0,0.0,93,0.01,,,0.03,VWS V14.00,2013-07-21 02:10:00,
2013-07-20 22:15:00,76.4,74.2,30.05,SSW,200,0.0,0.0,93,0.01,,,0.03,VWS V14.00,2013-07-21 02:15:00,
2013-07-20 22:20:00,76.4,74.2,30.05,SSW,200,0.0,0.0,93,0.01,,,0.03,VWS V14.00,2013-07-21 02:20:00,
2013-07-20 22:26:00,76.3,74.1,30.05,SSW,200,0.0,0.0,93,0.01,,,0.03,VWS V14.00,2013-07-21 02:26:00,
2013-07-20 22:30:00,76.9,74.4,30.05,SSW,200,0.0,0.0,92,0.02,,,0.03,VWS V14.00,2013-07-21 02:30:00,
2013-07-20 22:31:00,76.3,74.1,30.06,SSW,200,0.0,0.0,93,0.01,,,0.03,VWS V14.00,2013-07-21 02:31:00,
2013-07-20 22:36:00,76.3,74.1,30.06,SSW,200,0.0,0.0,93,0.00,,,0.03,VWS V14.00,2013-07-21 02:36:00,
2013-07-20 22:41:00,76.2,74.0,30.06,SSW,199,0.0,0.0,93,0.00,,,0.03,VWS V14.00,2013-07-21 02:41:00,
2013-07-20 22:47:00,76.1,73.9,30.06,SSW,200,0.0,0.0,93,0.00,,,0.03,VWS V14.00,2013-07-21 02:47:00,
2013-07-20 22:52:00,76.0,73.8,30.07,SSW,200,0.0,0.0,93,0.00,,,0.03,VWS V14.00,2013-07-21 02:52:00,
2013-07-20 22:57:00,76.0,73.8,30.06,SSW,200,0.0,0.0,93,0.00,,,0.03,VWS V14.00,2013-07-21 02:57:00,
2013-07-20 23:00:00,76.5,74.3,30.05,SSW,200,0.0,0.0,93,0.01,,,0.03,VWS V14.00,2013-07-21 03:00:00,
2013-07-20 23:02:00,76.0,74.2,30.07,SSW,200,0.0,0.0,94,0.00,,,0.03,VWS V14.00,2013-07-21 03:02:00,
2013-07-20 23:07:00,75.9,74.1,30.07,SSW,200,0.0,0.0,94,0.00,,,0.03,VWS V14.00,2013-07-21 03:07:00,
2013-07-20 23:13:00,76.0,74.2,30.07,SSW,199,0.0,0.0,94,0.00,,,0.03,VWS V14.00,2013-07-21 03:13:00,
2013-07-20 23:18:00,76.0,74.2,30.07,SSW,199,0.0,0.0,94,0.00,,,0.03,VWS V14.00,2013-07-21 03:18:00,
2013-07-20 23:23:00,75.9,74.1,30.07,SSW,200,0.0,0.0,94,0.00,,,0.03,VWS V14.00,2013-07-21 03:23:00,
2013-07-20 23:28:00,75.9,74.1,30.07,SSW,199,0.0,0.0,94,0.00,,,0.03,VWS V14.00,2013-07-21 03:28:00,
2013-07-20 23:30:00,76.3,74.1,30.06,SSW,199,0.0,0.0,93,0.01,,,0.03,VWS V14.00,2013-07-21 03:30:00,
2013-07-20 23:34:00,75.9,74.1,30.07,SSW,199,0.0,0.0,94,0.00,,,0.03,VWS V14.00,2013-07-21 03:34:00,
2013-07-20 23:39:00,75.9,74.1,30.07,SSW,200,0.0,0.0,94,0.00,,,0.03,VWS V14.00,2013-07-21 03:39:00,
2013-07-20 23:44:00,75.9,74.1,30.07,SSW,200,0.0,0.0,94,0.00,,,0.03,VWS V14.00,2013-07-21 03:44:00,
2013-07-20 23:50:00,76.0,74.2,30.08,SSW,199,0.0,0.0,94,0.00,,,0.03,VWS V14.00,2013-07-21 03:50:00,
2013-07-20 23:55:00,76.0,74.2,30.08,SSW,199,0.0,0.0,94,0.00,,,0.03,VWS V14.00,2013-07-21 03:55:00,